Terminal Aerodrome Forecast
Issued by NWS

Current Version | Previous Version | Graphics & Text | Print | Product List | Glossary On
Versions: 1 2 3 4 5 6 7 8 9 10 11 12 13 14 15 16 17 18 19 20 21
000
FTUS41 KPBZ 201406 AAA
TAFMGW
TAF AMD
KMGW 201406Z 2014/2112 30005KT P6SM BKN018 OVC035
     FM201500 32008KT P6SM SCT025 BKN035
      TEMPO 2015/2016 BKN025
     FM201600 32010KT P6SM BKN150=

USA.gov is the U.S. government's official web portal to all federal, state and local government web resources and services.